createdAt,value
2019-02-06T00:00:44.694Z,17.48
2019-02-06T00:03:13.132Z,17.12
2019-02-06T00:05:41.255Z,16.75
2019-02-06T00:08:09.452Z,14.27
2019-02-06T00:10:37.884Z,13.20
2019-02-06T00:13:05.648Z,17.30
2019-02-06T00:15:33.723Z,14.60
2019-02-06T00:18:01.621Z,15.88
2019-02-06T00:20:29.400Z,11.17
2019-02-06T00:22:57.219Z,15.30
2019-02-06T00:25:25.694Z,15.82
2019-02-06T00:27:53.776Z,16.50
2019-02-06T00:30:22.593Z,15.30
2019-02-06T00:32:50.991Z,11.57
2019-02-06T00:35:25.722Z,15.18
2019-02-06T00:37:47.731Z,12.00
2019-02-06T00:40:15.558Z,10.90
2019-02-06T00:42:43.317Z,14.75
2019-02-06T00:45:11.459Z,13.35
2019-02-06T00:47:39.597Z,8.93
2019-02-06T00:50:08.687Z,11.18
2019-02-06T00:52:36.718Z,12.77
2019-02-06T00:55:04.917Z,11.63
2019-02-06T00:57:32.981Z,13.03
2019-02-06T01:00:01.070Z,11.48
2019-02-06T01:02:29.392Z,11.97
2019-02-06T01:04:57.491Z,12.67
2019-02-06T01:07:25.581Z,12.90
2019-02-06T01:09:53.907Z,10.07
2019-02-06T01:12:21.754Z,9.37
2019-02-06T01:14:49.905Z,8.73
2019-02-06T01:17:19.389Z,11.00
2019-02-06T01:19:47.443Z,10.38
2019-02-06T01:22:15.510Z,10.65
2019-02-06T01:24:43.593Z,12.05
2019-02-06T01:27:11.792Z,8.65
2019-02-06T01:29:39.845Z,9.50
2019-02-06T01:32:08.236Z,8.73
2019-02-06T01:34:36.281Z,9.20
2019-02-06T01:37:04.376Z,8.27
2019-02-06T01:39:32.170Z,9.10
2019-02-06T01:42:00.299Z,10.23
2019-02-06T01:44:28.396Z,9.90
2019-02-06T01:46:56.746Z,9.17
2019-02-06T01:49:24.842Z,7.93
2019-02-06T01:51:53.569Z,10.13
2019-02-06T01:54:21.991Z,7.05
2019-02-06T01:56:50.085Z,7.57
2019-02-06T01:59:18.121Z,7.23
2019-02-06T02:01:46.209Z,7.73
2019-02-06T02:04:14.788Z,8.50
2019-02-06T02:06:42.851Z,8.15
2019-02-06T02:09:19.505Z,5.35
2019-02-06T02:11:47.513Z,8.63
2019-02-06T02:14:15.560Z,6.93
2019-02-06T02:16:44.056Z,8.60
2019-02-06T02:19:12.589Z,7.12
2019-02-06T02:21:40.701Z,7.73
2019-02-06T02:24:09.074Z,10.50
2019-02-06T02:26:36.862Z,7.17
2019-02-06T02:29:04.917Z,9.47
2019-02-06T02:31:32.748Z,7.40
2019-02-06T02:34:00.568Z,7.43
2019-02-06T02:36:28.410Z,9.27
2019-02-06T02:38:56.827Z,8.20
2019-02-06T02:41:26.683Z,7.60
2019-02-06T02:43:56.464Z,10.23
2019-02-06T02:46:25.323Z,8.30
2019-02-06T02:48:53.508Z,9.35
2019-02-06T02:51:21.568Z,6.45
2019-02-06T02:53:50.767Z,8.65
2019-02-06T02:56:18.845Z,6.57
2019-02-06T02:58:46.887Z,9.02
2019-02-06T03:01:27.163Z,8.40
2019-02-06T03:04:04.733Z,8.18
2019-02-06T03:06:32.603Z,9.10
2019-02-06T03:09:00.654Z,9.20
2019-02-06T03:11:28.754Z,8.18
2019-02-06T03:13:57.103Z,7.65
2019-02-06T03:16:25.016Z,9.07
2019-02-06T03:18:52.805Z,8.75
2019-02-06T03:21:21.529Z,7.10
2019-02-06T03:23:49.784Z,9.77
2019-02-06T03:26:17.858Z,9.23
2019-02-06T03:28:45.851Z,8.43
2019-02-06T03:31:13.942Z,9.43
2019-02-06T03:33:41.710Z,9.43
2019-02-06T03:36:09.800Z,8.88
2019-02-06T03:38:37.936Z,9.35
2019-02-06T03:41:05.974Z,9.13
2019-02-06T03:43:34.713Z,10.40
2019-02-06T03:46:02.908Z,8.10
2019-02-06T03:48:31.034Z,7.78
2019-02-06T03:50:59.161Z,8.70
2019-02-06T03:53:26.891Z,7.13
2019-02-06T03:55:55.573Z,9.90
2019-02-06T03:58:23.319Z,9.80
2019-02-06T04:00:51.836Z,7.90
2019-02-06T04:03:19.870Z,9.18
2019-02-06T04:05:47.838Z,9.40
2019-02-06T04:08:15.928Z,8.80
2019-02-06T04:10:44.499Z,7.82
2019-02-06T04:13:13.411Z,10.35
2019-02-06T04:15:41.441Z,8.95
2019-02-06T04:18:09.524Z,8.95
2019-02-06T04:20:38.049Z,10.30
2019-02-06T04:23:06.108Z,8.55
2019-02-06T04:25:34.178Z,8.52
2019-02-06T04:28:01.777Z,9.23
2019-02-06T04:30:29.804Z,8.85
2019-02-06T04:32:57.843Z,8.40
2019-02-06T04:35:26.665Z,9.07
2019-02-06T04:37:54.731Z,10.80
2019-02-06T04:40:22.575Z,10.32
2019-02-06T04:42:50.056Z,9.73
2019-02-06T04:45:18.318Z,8.65
2019-02-06T04:47:46.428Z,9.27
2019-02-06T04:50:14.818Z,7.97
2019-02-06T04:52:44.083Z,8.70
2019-02-06T04:55:14.772Z,7.80
2019-02-06T04:57:42.301Z,9.30
2019-02-06T05:00:12.768Z,9.60
2019-02-06T05:02:40.850Z,10.03
2019-02-06T05:05:09.414Z,9.60
2019-02-06T05:07:37.482Z,10.48
2019-02-06T05:10:05.865Z,10.43
2019-02-06T05:12:33.948Z,8.52
2019-02-06T05:15:02.540Z,10.63
2019-02-06T05:17:30.298Z,8.15
2019-02-06T05:19:58.379Z,8.90
2019-02-06T05:22:26.428Z,8.88
2019-02-06T05:24:54.789Z,9.20
2019-02-06T05:27:22.678Z,8.65
2019-02-06T05:29:50.486Z,9.48
2019-02-06T05:32:18.519Z,6.97
2019-02-06T05:34:46.899Z,8.60
2019-02-06T05:37:14.766Z,8.13
2019-02-06T05:39:42.843Z,12.60
2019-02-06T05:42:10.818Z,9.75
2019-02-06T05:44:38.924Z,10.32
2019-02-06T05:47:06.950Z,12.30
2019-02-06T05:49:35.055Z,10.07
2019-02-06T05:52:03.287Z,11.12
2019-02-06T05:54:31.051Z,7.78
2019-02-06T05:56:59.217Z,9.02
2019-02-06T05:59:27.703Z,9.18
2019-02-06T06:01:55.898Z,8.30
2019-02-06T06:04:24.066Z,7.90
2019-02-06T06:06:52.010Z,8.68
2019-02-06T06:09:20.134Z,8.23
2019-02-06T06:11:48.482Z,11.23
2019-02-06T06:14:16.515Z,10.18
2019-02-06T06:16:44.733Z,11.05
2019-02-06T06:19:12.897Z,10.18
2019-02-06T06:21:40.673Z,10.18
2019-02-06T06:24:09.185Z,9.88
2019-02-06T06:26:36.687Z,9.85
2019-02-06T06:29:04.766Z,10.07
2019-02-06T06:31:32.830Z,8.95
2019-02-06T06:34:00.699Z,12.23
2019-02-06T06:36:28.779Z,8.85
2019-02-06T06:38:56.243Z,10.70
2019-02-06T06:41:24.341Z,9.43
2019-02-06T06:43:52.183Z,10.13
2019-02-06T06:46:20.234Z,10.57
2019-02-06T06:48:48.742Z,10.25
2019-02-06T06:51:16.724Z,8.95
2019-02-06T06:53:44.777Z,9.40
2019-02-06T06:56:13.120Z,10.20
2019-02-06T06:58:40.913Z,13.43
2019-02-06T07:01:10.959Z,11.35
2019-02-06T07:03:37.447Z,12.48
2019-02-06T07:06:05.510Z,10.80
2019-02-06T07:08:33.590Z,11.10
2019-02-06T07:11:01.676Z,10.52
2019-02-06T07:13:30.249Z,12.18
2019-02-06T07:16:00.308Z,11.80
2019-02-06T07:18:26.689Z,10.40
2019-02-06T07:20:54.796Z,11.43
2019-02-06T07:23:22.526Z,12.57
2019-02-06T07:25:50.621Z,12.15
2019-02-06T07:28:18.777Z,9.88
2019-02-06T07:30:46.644Z,12.60
2019-02-06T07:33:14.842Z,12.60
2019-02-06T07:35:42.895Z,10.67
2019-02-06T07:38:22.357Z,9.90
2019-02-06T07:40:39.633Z,10.85
2019-02-06T07:43:08.129Z,14.02
2019-02-06T07:45:35.872Z,11.88
2019-02-06T07:48:04.282Z,11.27
2019-02-06T07:50:32.943Z,10.77
2019-02-06T07:53:01.022Z,11.73
2019-02-06T07:55:29.245Z,13.13
2019-02-06T07:57:57.387Z,11.07
2019-02-06T08:00:25.435Z,10.45
2019-02-06T08:02:54.967Z,10.88
2019-02-06T08:05:23.277Z,11.20
2019-02-06T08:07:51.497Z,11.50
2019-02-06T08:10:20.506Z,11.63
2019-02-06T08:12:48.590Z,11.07
2019-02-06T08:15:16.713Z,12.93
2019-02-06T08:17:44.820Z,13.00
2019-02-06T08:20:13.983Z,12.55
2019-02-06T08:22:42.097Z,12.80
2019-02-06T08:25:11.437Z,13.82
2019-02-06T08:27:39.287Z,14.38
2019-02-06T08:30:09.264Z,13.45
2019-02-06T08:32:37.979Z,13.30
2019-02-06T08:35:05.707Z,13.75
2019-02-06T08:37:33.480Z,14.07
2019-02-06T08:40:01.601Z,16.62
2019-02-06T08:42:29.715Z,18.65
2019-02-06T08:44:57.783Z,15.45
2019-02-06T08:47:26.423Z,15.20
2019-02-06T08:49:54.264Z,15.77
2019-02-06T08:52:22.438Z,16.27
2019-02-06T08:54:51.208Z,16.08
2019-02-06T08:57:19.247Z,15.25
2019-02-06T08:59:47.338Z,19.48
2019-02-06T09:02:15.512Z,16.58
2019-02-06T09:04:55.244Z,17.90
2019-02-06T09:07:11.753Z,16.77
2019-02-06T09:09:39.948Z,15.70
2019-02-06T09:12:08.025Z,18.35
2019-02-06T09:14:36.096Z,17.48
2019-02-06T09:17:04.215Z,17.75
2019-02-06T09:19:32.339Z,23.73
2019-02-06T09:22:00.494Z,16.83
2019-02-06T09:24:28.377Z,19.48
2019-02-06T09:26:56.147Z,19.87
2019-02-06T09:29:24.090Z,18.42
2019-02-06T09:31:52.886Z,20.55
2019-02-06T09:34:21.386Z,20.62
2019-02-06T09:36:49.637Z,19.92
2019-02-06T09:39:18.016Z,21.02
2019-02-06T09:41:46.062Z,22.02
2019-02-06T09:44:14.068Z,18.95
2019-02-06T09:46:42.544Z,18.15
2019-02-06T09:49:11.229Z,18.27
2019-02-06T09:51:39.293Z,17.52
2019-02-06T09:54:07.352Z,18.40
2019-02-06T09:56:35.224Z,17.25
2019-02-06T09:59:03.412Z,16.60
2019-02-06T10:01:32.813Z,16.35
2019-02-06T10:04:00.856Z,15.68
2019-02-06T10:06:29.831Z,18.77
2019-02-06T10:08:58.200Z,16.17
2019-02-06T10:11:26.309Z,17.62
2019-02-06T10:13:54.490Z,15.73
2019-02-06T10:16:22.248Z,17.40
2019-02-06T10:18:50.312Z,16.00
2019-02-06T10:21:18.977Z,16.17
2019-02-06T10:23:47.601Z,18.70
2019-02-06T10:26:16.040Z,17.45
2019-02-06T10:28:44.128Z,18.62
2019-02-06T10:31:12.544Z,19.00
2019-02-06T10:33:40.726Z,17.50
2019-02-06T10:36:08.578Z,16.55
2019-02-06T10:38:36.448Z,19.77
2019-02-06T10:41:04.784Z,17.62
2019-02-06T10:43:35.711Z,21.10
2019-02-06T10:46:00.737Z,19.98
2019-02-06T10:48:28.208Z,20.75
2019-02-06T10:50:58.389Z,16.80
2019-02-06T10:53:24.537Z,20.12
2019-02-06T10:55:52.605Z,14.30
2019-02-06T10:58:20.703Z,18.02
2019-02-06T11:00:51.079Z,17.15
2019-02-06T11:03:19.714Z,20.92
2019-02-06T11:05:47.582Z,19.60
2019-02-06T11:08:16.364Z,19.15
2019-02-06T11:10:44.446Z,17.75
2019-02-06T11:13:11.922Z,18.02
2019-02-06T11:15:40.371Z,17.05
2019-02-06T11:18:08.322Z,19.12
2019-02-06T11:20:36.580Z,20.85
2019-02-06T11:23:05.225Z,19.02
2019-02-06T11:25:33.357Z,16.70
2019-02-06T11:28:02.393Z,15.80
2019-02-06T11:30:31.196Z,20.08
2019-02-06T11:32:59.200Z,20.08
2019-02-06T11:35:27.786Z,19.77
2019-02-06T11:37:56.125Z,18.90
2019-02-06T11:40:24.266Z,17.17
2019-02-06T11:42:52.390Z,16.50
2019-02-06T11:45:21.536Z,17.05
2019-02-06T11:47:49.372Z,19.00
2019-02-06T11:50:18.241Z,16.83
2019-02-06T11:52:46.667Z,16.00
2019-02-06T11:55:19.216Z,17.87
2019-02-06T11:57:47.288Z,17.35
2019-02-06T12:00:16.921Z,17.12
2019-02-06T12:02:44.958Z,15.95
2019-02-06T12:05:13.035Z,17.25
2019-02-06T12:07:41.117Z,19.10
2019-02-06T12:10:11.232Z,19.92
2019-02-06T12:12:39.021Z,18.83
2019-02-06T12:15:08.445Z,18.40
2019-02-06T12:17:36.653Z,18.12
2019-02-06T12:20:04.984Z,18.67
2019-02-06T12:22:33.602Z,19.55
2019-02-06T12:25:01.726Z,19.25
2019-02-06T12:27:29.813Z,15.70
2019-02-06T12:29:58.001Z,17.42
2019-02-06T12:32:26.123Z,15.45
2019-02-06T12:34:54.104Z,17.25
2019-02-06T12:37:22.854Z,16.05
2019-02-06T12:39:51.441Z,17.90
2019-02-06T12:42:19.858Z,17.45
2019-02-06T12:44:48.367Z,15.40
2019-02-06T12:47:16.204Z,16.92
2019-02-06T12:49:44.357Z,17.87
2019-02-06T12:52:12.978Z,14.98
2019-02-06T12:54:40.715Z,18.87
2019-02-06T12:57:08.218Z,19.67
2019-02-06T12:59:36.973Z,20.42
2019-02-06T13:02:05.668Z,17.20
2019-02-06T13:04:33.848Z,17.87
2019-02-06T13:07:02.170Z,17.42
2019-02-06T13:09:30.848Z,16.65
2019-02-06T13:11:59.652Z,16.45
2019-02-06T13:14:27.852Z,16.00
2019-02-06T13:16:55.708Z,15.93
2019-02-06T13:19:23.534Z,15.80
2019-02-06T13:21:52.442Z,20.62
2019-02-06T13:24:20.332Z,20.90
2019-02-06T13:26:48.420Z,23.08
2019-02-06T13:29:16.744Z,17.02
2019-02-06T13:31:45.662Z,18.62
2019-02-06T13:34:13.757Z,18.87
2019-02-06T13:36:42.016Z,15.50
2019-02-06T13:39:10.721Z,15.95
2019-02-06T13:41:38.908Z,16.10
2019-02-06T13:44:06.443Z,16.65
2019-02-06T13:46:33.988Z,17.40
2019-02-06T13:49:02.204Z,15.68
2019-02-06T13:51:30.374Z,21.80
2019-02-06T13:53:58.562Z,17.10
2019-02-06T13:56:26.682Z,15.98
2019-02-06T13:58:54.546Z,17.77
2019-02-06T14:01:25.916Z,15.43
2019-02-06T14:03:50.905Z,16.90
2019-02-06T14:06:18.840Z,17.83
2019-02-06T14:08:46.961Z,15.52
2019-02-06T14:11:15.525Z,17.62
2019-02-06T14:13:44.025Z,19.30
2019-02-06T14:16:11.801Z,18.33
2019-02-06T14:18:39.546Z,15.63
2019-02-06T14:21:07.701Z,17.80
2019-02-06T14:23:38.979Z,17.33
2019-02-06T14:26:26.264Z,18.20
2019-02-06T14:29:16.461Z,16.67
2019-02-06T14:31:51.540Z,15.68
2019-02-06T14:34:26.542Z,15.85
2019-02-06T14:37:16.294Z,15.50
2019-02-06T14:40:03.747Z,19.25
2019-02-06T14:42:35.299Z,17.52
2019-02-06T14:45:21.272Z,17.77
2019-02-06T14:48:08.719Z,17.30
2019-02-06T14:50:56.043Z,20.23
2019-02-06T14:53:42.633Z,16.60
2019-02-06T14:56:17.685Z,20.90
2019-02-06T14:59:17.292Z,17.50
2019-02-06T15:02:05.629Z,20.40
2019-02-06T15:04:52.962Z,18.33
2019-02-06T15:07:35.896Z,22.87
2019-02-06T15:10:11.753Z,17.20
2019-02-06T15:12:48.901Z,22.37
2019-02-06T15:15:26.929Z,18.67
2019-02-06T15:18:23.033Z,16.30
2019-02-06T15:20:54.406Z,16.52
2019-02-06T15:23:36.384Z,18.87
2019-02-06T15:26:12.109Z,18.40
2019-02-06T15:28:45.858Z,20.33
2019-02-06T15:31:32.233Z,19.70
2019-02-06T15:34:26.007Z,16.90
2019-02-06T15:37:25.269Z,20.35
2019-02-06T15:40:12.875Z,19.65
2019-02-06T15:42:43.499Z,19.48
2019-02-06T15:45:24.664Z,18.35
2019-02-06T15:48:11.174Z,20.77
2019-02-06T15:50:43.319Z,23.02
2019-02-06T15:53:48.358Z,18.33
2019-02-06T15:56:37.017Z,21.02
2019-02-06T15:59:24.640Z,20.48
2019-02-06T16:02:24.033Z,24.52
2019-02-06T16:05:37.141Z,21.37
2019-02-06T16:08:18.567Z,20.52
2019-02-06T16:11:04.462Z,20.17
2019-02-06T16:13:56.459Z,20.12
2019-02-06T16:16:43.188Z,22.48
2019-02-06T16:19:29.502Z,22.70
2019-02-06T16:22:17.026Z,25.25
2019-02-06T16:24:57.490Z,21.08
2019-02-06T16:27:47.565Z,21.92
2019-02-06T16:30:33.441Z,20.23
2019-02-06T16:33:19.776Z,20.42
2019-02-06T16:36:09.933Z,35.08
2019-02-06T16:39:09.340Z,30.50
2019-02-06T16:41:53.939Z,23.58
2019-02-06T16:44:39.242Z,21.90
2019-02-06T16:47:12.002Z,23.10
2019-02-06T16:50:01.428Z,24.58
2019-02-06T16:52:39.943Z,25.80
2019-02-06T16:55:42.331Z,21.95
2019-02-06T16:58:30.210Z,22.62
2019-02-06T17:01:06.308Z,35.05
2019-02-06T17:03:44.557Z,24.40
2019-02-06T17:06:19.246Z,22.48
2019-02-06T17:08:54.490Z,22.73
2019-02-06T17:11:51.426Z,21.85
2019-02-06T17:14:36.601Z,19.77
2019-02-06T17:17:11.224Z,22.95
2019-02-06T17:20:05.344Z,24.77
2019-02-06T17:22:58.662Z,22.02
2019-02-06T17:25:45.906Z,22.83
2019-02-06T17:28:33.093Z,22.45
2019-02-06T17:31:19.018Z,39.83
2019-02-06T17:34:00.194Z,39.53
2019-02-06T17:36:46.273Z,28.42
2019-02-06T17:39:28.247Z,29.63
2019-02-06T17:42:15.502Z,24.25
2019-02-06T17:44:53.896Z,25.70
2019-02-06T17:47:39.003Z,29.55
2019-02-06T17:50:25.096Z,20.58
2019-02-06T17:53:18.368Z,34.47
2019-02-06T17:55:46.808Z,44.83
2019-02-06T17:58:15.085Z,36.33
2019-02-06T18:01:04.301Z,33.53
2019-02-06T18:03:37.537Z,32.35
2019-02-06T18:06:06.036Z,39.33
2019-02-06T18:08:34.637Z,29.98
2019-02-06T18:11:02.666Z,48.30
2019-02-06T18:13:30.746Z,38.72
2019-02-06T18:15:59.134Z,44.80
2019-02-06T18:18:27.197Z,51.10
2019-02-06T18:20:55.624Z,60.30
2019-02-06T18:23:23.459Z,69.43
2019-02-06T18:25:51.635Z,91.55
2019-02-06T18:28:19.704Z,45.35
2019-02-06T18:30:47.773Z,36.47
2019-02-06T18:33:18.531Z,32.92
2019-02-06T18:35:43.808Z,27.13
2019-02-06T18:38:11.897Z,25.08
2019-02-06T18:40:40.682Z,22.83
2019-02-06T18:43:08.773Z,21.67
2019-02-06T18:45:36.692Z,22.37
2019-02-06T18:48:07.158Z,21.98
2019-02-06T18:50:35.279Z,26.33
2019-02-06T18:53:04.027Z,25.10
2019-02-06T18:55:32.190Z,20.73
2019-02-06T18:58:00.342Z,23.02
2019-02-06T19:00:32.458Z,23.85
2019-02-06T19:03:00.050Z,21.02
2019-02-06T19:05:29.557Z,23.50
2019-02-06T19:07:57.636Z,29.50
2019-02-06T19:10:25.686Z,23.80
2019-02-06T19:12:54.064Z,24.23
2019-02-06T19:15:22.661Z,27.13
2019-02-06T19:17:51.038Z,23.25
2019-02-06T19:20:18.798Z,22.58
2019-02-06T19:22:47.076Z,27.13
2019-02-06T19:25:15.676Z,23.20
2019-02-06T19:27:43.839Z,24.65
2019-02-06T19:30:14.822Z,20.08
2019-02-06T19:32:44.510Z,23.15
2019-02-06T19:35:10.785Z,26.50
2019-02-06T19:37:39.199Z,23.30
2019-02-06T19:40:07.833Z,25.12
2019-02-06T19:42:35.337Z,19.75
2019-02-06T19:45:03.524Z,29.95
2019-02-06T19:47:31.266Z,27.40
2019-02-06T19:49:59.451Z,23.08
2019-02-06T19:52:27.824Z,31.23
2019-02-06T19:54:56.204Z,25.17
2019-02-06T19:57:26.040Z,24.70
2019-02-06T19:59:52.462Z,28.30
2019-02-06T20:02:20.619Z,23.52
2019-02-06T20:04:48.829Z,26.52
2019-02-06T20:07:16.561Z,32.13
2019-02-06T20:09:44.573Z,29.25
2019-02-06T20:12:12.307Z,25.23
2019-02-06T20:14:40.791Z,26.87
2019-02-06T20:17:08.861Z,34.35
2019-02-06T20:19:37.039Z,29.73
2019-02-06T20:22:05.631Z,47.70
2019-02-06T20:24:34.343Z,34.30
2019-02-06T20:27:02.473Z,36.03
2019-02-06T20:29:30.554Z,29.20
2019-02-06T20:31:58.580Z,29.40
2019-02-06T20:34:26.789Z,31.37
2019-02-06T20:36:54.871Z,29.00
2019-02-06T20:39:23.015Z,30.27
2019-02-06T20:41:51.208Z,32.75
2019-02-06T20:44:19.115Z,34.40
2019-02-06T20:46:47.236Z,33.75
2019-02-06T20:49:15.318Z,33.50
2019-02-06T20:51:43.804Z,29.65
2019-02-06T20:54:11.864Z,31.85
2019-02-06T20:56:39.661Z,31.67
2019-02-06T20:59:07.812Z,28.30
2019-02-06T21:01:35.674Z,33.17
2019-02-06T21:04:03.740Z,32.03
2019-02-06T21:06:32.410Z,29.75
2019-02-06T21:09:00.496Z,35.20
2019-02-06T21:11:27.945Z,33.10
2019-02-06T21:13:55.719Z,34.97
2019-02-06T21:16:23.785Z,29.63
2019-02-06T21:18:51.866Z,32.03
2019-02-06T21:21:19.839Z,32.05
2019-02-06T21:23:47.593Z,34.20
2019-02-06T21:26:16.918Z,39.80
2019-02-06T21:28:45.364Z,37.90
2019-02-06T21:31:13.238Z,41.08
2019-02-06T21:33:41.324Z,44.30
2019-02-06T21:36:10.288Z,41.45
2019-02-06T21:38:38.094Z,37.40
2019-02-06T21:41:06.324Z,35.42
2019-02-06T21:43:43.870Z,39.78
2019-02-06T21:46:02.973Z,29.37
2019-02-06T21:48:31.255Z,36.28
2019-02-06T21:50:59.569Z,34.72
2019-02-06T21:53:27.616Z,26.95
2019-02-06T21:55:55.694Z,29.75
2019-02-06T21:58:23.760Z,33.10
2019-02-06T22:00:51.886Z,32.80
2019-02-06T22:03:19.926Z,31.52
2019-02-06T22:05:47.433Z,34.38
2019-02-06T22:08:15.511Z,28.40
2019-02-06T22:10:43.651Z,31.08
2019-02-06T22:13:11.697Z,33.95
2019-02-06T22:15:39.936Z,35.25
2019-02-06T22:18:08.038Z,31.60
2019-02-06T22:20:36.399Z,32.38
2019-02-06T22:23:04.592Z,30.20
2019-02-06T22:25:32.630Z,27.40
2019-02-06T22:28:01.703Z,29.50
2019-02-06T22:30:30.273Z,31.48
2019-02-06T22:32:58.639Z,30.52
2019-02-06T22:35:26.788Z,25.95
2019-02-06T22:37:54.849Z,25.45
2019-02-06T22:40:23.339Z,23.77
2019-02-06T22:42:51.516Z,26.25
2019-02-06T22:45:19.863Z,27.73
2019-02-06T22:47:47.926Z,26.05
2019-02-06T22:50:17.380Z,23.73
2019-02-06T22:52:45.239Z,23.65
2019-02-06T22:55:13.376Z,15.18
2019-02-06T22:57:41.750Z,21.85
2019-02-06T23:00:23.881Z,23.35
2019-02-06T23:02:41.285Z,20.00
2019-02-06T23:05:10.395Z,17.25
2019-02-06T23:07:38.539Z,22.77
2019-02-06T23:10:07.104Z,17.85
2019-02-06T23:12:35.388Z,19.27
2019-02-06T23:15:03.495Z,21.62
2019-02-06T23:17:31.675Z,16.98
2019-02-06T23:19:59.736Z,18.62
2019-02-06T23:22:28.018Z,19.00
2019-02-06T23:24:55.818Z,21.87
2019-02-06T23:27:24.069Z,13.38
2019-02-06T23:29:52.544Z,20.10
2019-02-06T23:32:20.384Z,16.25
2019-02-06T23:34:49.112Z,13.60
2019-02-06T23:37:17.224Z,18.50
2019-02-06T23:39:45.350Z,15.65
2019-02-06T23:42:13.209Z,17.70
2019-02-06T23:44:41.808Z,18.92
2019-02-06T23:47:09.945Z,14.23
2019-02-06T23:49:37.826Z,17.23
2019-02-06T23:52:05.592Z,18.40
2019-02-06T23:54:33.805Z,17.75
2019-02-06T23:57:02.203Z,18.83
2019-02-06T23:59:30.283Z,16.92
